createdAt,value
2023-06-18T00:00:24.297Z,99700.65
2023-06-18T00:01:30.791Z,99694.36
2023-06-18T00:02:34.392Z,99694.16
2023-06-18T00:03:40.512Z,99698.32
2023-06-18T00:04:44.098Z,99693.73
2023-06-18T00:05:47.394Z,99696.05
2023-06-18T00:06:50.062Z,99697.29
2023-06-18T00:07:53.148Z,99690.61
2023-06-18T00:08:55.436Z,99693.09
2023-06-18T00:10:05.619Z,99697.48
2023-06-18T00:11:10.987Z,99694.98
2023-06-18T00:12:14.352Z,99693.73
2023-06-18T00:13:18.153Z,99693.30
2023-06-18T00:14:22.008Z,99687.24
2023-06-18T00:15:25.604Z,99693.91
2023-06-18T00:16:29.119Z,99691.00
2023-06-18T00:17:39.173Z,99690.36
2023-06-18T00:18:42.916Z,99686.61
2023-06-18T00:19:46.432Z,99689.94
2023-06-18T00:20:50.731Z,99687.86
2023-06-18T00:21:54.084Z,99685.95
2023-06-18T00:22:57.698Z,99689.73
2023-06-18T00:24:01.201Z,99680.75
2023-06-18T00:25:04.166Z,99687.42
2023-06-18T00:26:09.422Z,99683.03
2023-06-18T00:27:14.188Z,99676.56
2023-06-18T00:28:18.542Z,99677.20
2023-06-18T00:29:24.356Z,99674.08
2023-06-18T00:30:27.849Z,99684.71
2023-06-18T00:31:32.246Z,99688.67
2023-06-18T00:32:39.067Z,99679.28
2023-06-18T00:33:43.394Z,99690.74
2023-06-18T00:34:49.175Z,99683.04
2023-06-18T00:35:56.866Z,99688.03
2023-06-18T00:37:02.973Z,99683.04
2023-06-18T00:38:09.088Z,99687.20
2023-06-18T00:39:12.591Z,99681.36
2023-06-18T00:40:16.407Z,99684.72
2023-06-18T00:41:20.123Z,99682.77
2023-06-18T00:42:23.510Z,99685.12
2023-06-18T00:43:29.952Z,99680.73
2023-06-18T00:44:34.293Z,99683.88
2023-06-18T00:45:38.482Z,99686.99
2023-06-18T00:46:46.602Z,99690.54
2023-06-18T00:47:50.375Z,99685.48
2023-06-18T00:48:56.163Z,99683.23
2023-06-18T00:50:02.307Z,99687.83
2023-06-18T00:51:13.478Z,99691.38
2023-06-18T00:52:16.926Z,99684.28
2023-06-18T00:53:21.556Z,99685.69
2023-06-18T00:54:27.672Z,99690.68
2023-06-18T00:55:33.860Z,99685.89
2023-06-18T00:56:40.094Z,99687.77
2023-06-18T00:57:44.962Z,99691.31
2023-06-18T00:58:49.514Z,99685.66
2023-06-18T00:59:53.222Z,99681.70
2023-06-18T01:00:59.591Z,99685.25
2023-06-18T01:02:03.270Z,99684.02
2023-06-18T01:03:09.346Z,99685.45
2023-06-18T01:04:17.014Z,99685.85
2023-06-18T01:05:23.188Z,99681.30
2023-06-18T01:06:27.930Z,99684.02
2023-06-18T01:07:35.020Z,99687.48
2023-06-18T01:08:36.131Z,99683.14
2023-06-18T01:09:40.259Z,99683.34
2023-06-18T01:10:42.906Z,99687.09
2023-06-18T01:11:48.286Z,99686.69
2023-06-18T01:12:51.788Z,99687.53
2023-06-18T01:13:55.510Z,99681.47
2023-06-18T01:14:59.953Z,99682.06
2023-06-18T01:16:08.468Z,99683.94
2023-06-18T01:17:12.405Z,99677.48
2023-06-18T01:18:16.327Z,99674.56
2023-06-18T01:19:36.212Z,99685.61
2023-06-18T01:20:45.062Z,99686.66
2023-06-18T01:21:49.934Z,99684.17
2023-06-18T01:23:06.907Z,99682.06
2023-06-18T01:24:14.185Z,99684.97
2023-06-18T01:25:19.964Z,99691.62
2023-06-18T01:26:29.444Z,99685.77
2023-06-18T01:27:38.662Z,99687.05
2023-06-18T01:28:42.226Z,99692.27
2023-06-18T01:29:48.449Z,99691.62
2023-06-18T01:30:54.428Z,99688.08
2023-06-18T01:31:57.359Z,99691.53
2023-06-18T01:33:01.888Z,99690.98
2023-06-18T01:34:06.117Z,99686.80
2023-06-18T01:35:12.493Z,99688.91
2023-06-18T01:36:16.318Z,99693.01
2023-06-18T01:37:21.502Z,99691.53
2023-06-18T01:38:39.143Z,99687.77
2023-06-18T01:39:46.991Z,99694.24
2023-06-18T01:40:52.432Z,99691.13
2023-06-18T01:41:57.710Z,99690.48
2023-06-18T01:43:01.795Z,99688.17
2023-06-18T01:44:08.216Z,99691.27
2023-06-18T01:45:14.853Z,99692.75
2023-06-18T01:46:25.829Z,99696.25
2023-06-18T01:47:29.931Z,99696.10
2023-06-18T01:48:34.875Z,99695.91
2023-06-18T01:49:40.037Z,99696.34
2023-06-18T01:50:45.534Z,99694.24
2023-06-18T01:51:52.171Z,99694.23
2023-06-18T01:52:56.224Z,99701.13
2023-06-18T01:54:00.416Z,99697.98
2023-06-18T01:55:04.381Z,99691.73
2023-06-18T01:56:12.283Z,99695.72
2023-06-18T01:57:16.180Z,99693.20
2023-06-18T01:58:21.491Z,99697.38
2023-06-18T01:59:26.669Z,99695.46
2023-06-18T02:00:29.516Z,99698.17
2023-06-18T02:01:35.926Z,99698.95
2023-06-18T02:02:40.727Z,99696.67
2023-06-18T02:03:47.540Z,99689.59
2023-06-18T02:04:52.247Z,99701.91
2023-06-18T02:05:58.325Z,99697.09
2023-06-18T02:07:01.973Z,99702.11
2023-06-18T02:08:05.660Z,99696.89
2023-06-18T02:09:12.773Z,99694.42
2023-06-18T02:10:17.718Z,99696.44
2023-06-18T02:11:20.433Z,99694.63
2023-06-18T02:12:23.359Z,99701.47
2023-06-18T02:13:26.709Z,99699.41
2023-06-18T02:14:30.747Z,99697.53
2023-06-18T02:15:33.989Z,99705.86
2023-06-18T02:16:45.169Z,99708.38
2023-06-18T02:17:49.750Z,99703.59
2023-06-18T02:18:53.121Z,99701.47
2023-06-18T02:19:55.802Z,99706.89
2023-06-18T02:20:59.926Z,99710.44
2023-06-18T02:22:04.998Z,99708.38
2023-06-18T02:23:08.815Z,99706.75
2023-06-18T02:24:15.671Z,99707.38
2023-06-18T02:25:21.775Z,99712.61
2023-06-18T02:26:25.605Z,99706.55
2023-06-18T02:27:30.755Z,99703.64
2023-06-18T02:28:34.380Z,99707.78
2023-06-18T02:29:37.768Z,99715.33
2023-06-18T02:30:41.226Z,99714.89
2023-06-18T02:31:43.519Z,99719.09
2023-06-18T02:32:47.902Z,99715.93
2023-06-18T02:33:51.600Z,99713.41
2023-06-18T02:34:53.837Z,99715.52
2023-06-18T02:35:58.911Z,99712.23
2023-06-18T02:37:02.303Z,99717.85
2023-06-18T02:38:06.232Z,99718.30
2023-06-18T02:39:10.261Z,99722.48
2023-06-18T02:40:16.047Z,99716.81
2023-06-18T02:41:20.322Z,99717.66
2023-06-18T02:42:27.758Z,99718.73
2023-06-18T02:43:33.964Z,99720.61
2023-06-18T02:44:38.605Z,99713.33
2023-06-18T02:45:42.469Z,99721.45
2023-06-18T02:46:46.719Z,99719.34
2023-06-18T02:47:51.071Z,99719.97
2023-06-18T02:48:54.798Z,99718.89
2023-06-18T02:49:58.049Z,99727.66
2023-06-18T02:51:01.667Z,99727.07
2023-06-18T02:52:09.668Z,99725.20
2023-06-18T02:53:14.435Z,99726.03
2023-06-18T02:54:18.031Z,99729.29
2023-06-18T02:55:21.845Z,99723.03
2023-06-18T02:56:26.082Z,99718.44
2023-06-18T02:57:29.288Z,99721.41
2023-06-18T02:58:35.228Z,99728.70
2023-06-18T02:59:42.977Z,99723.72
2023-06-18T03:00:50.270Z,99727.66
2023-06-18T03:01:56.024Z,99721.01
2023-06-18T03:02:58.396Z,99723.52
2023-06-18T03:04:03.989Z,99719.92
2023-06-18T03:05:10.066Z,99716.77
2023-06-18T03:06:14.342Z,99715.09
2023-06-18T03:07:18.769Z,99720.37
2023-06-18T03:08:25.837Z,99721.80
2023-06-18T03:09:30.436Z,99719.97
2023-06-18T03:10:39.517Z,99723.91
2023-06-18T03:11:42.754Z,99720.77
2023-06-18T03:12:47.688Z,99720.13
2023-06-18T03:13:58.993Z,99725.34
2023-06-18T03:15:02.645Z,99731.23
2023-06-18T03:16:05.398Z,99738.17
2023-06-18T03:17:13.092Z,99731.72
2023-06-18T03:18:15.348Z,99734.42
2023-06-18T03:19:20.422Z,99726.50
2023-06-18T03:20:25.575Z,99730.30
2023-06-18T03:21:34.338Z,99730.97
2023-06-18T03:22:38.672Z,99735.33
2023-06-18T03:23:42.898Z,99732.61
2023-06-18T03:24:46.141Z,99736.80
2023-06-18T03:25:49.758Z,99730.34
2023-06-18T03:27:01.938Z,99733.48
2023-06-18T03:28:05.801Z,99727.42
2023-06-18T03:29:11.068Z,99732.85
2023-06-18T03:30:15.316Z,99731.88
2023-06-18T03:31:20.093Z,99725.85
2023-06-18T03:32:23.936Z,99723.77
2023-06-18T03:33:30.219Z,99736.73
2023-06-18T03:34:36.003Z,99732.75
2023-06-18T03:35:40.470Z,99735.30
2023-06-18T03:36:46.061Z,99732.58
2023-06-18T03:37:49.989Z,99738.64
2023-06-18T03:38:54.895Z,99726.73
2023-06-18T03:39:58.704Z,99736.16
2023-06-18T03:41:01.545Z,99738.45
2023-06-18T03:42:06.112Z,99743.48
2023-06-18T03:43:11.051Z,99736.41
2023-06-18T03:44:15.080Z,99736.39
2023-06-18T03:45:18.909Z,99744.53
2023-06-18T03:46:23.682Z,99739.12
2023-06-18T03:47:27.585Z,99739.96
2023-06-18T03:48:32.547Z,99751.66
2023-06-18T03:49:37.948Z,99746.03
2023-06-18T03:50:42.326Z,99744.35
2023-06-18T03:51:46.117Z,99746.66
2023-06-18T03:52:49.810Z,99747.27
2023-06-18T03:53:56.077Z,99752.24
2023-06-18T03:55:00.385Z,99747.70
2023-06-18T03:56:05.294Z,99747.48
2023-06-18T03:57:10.304Z,99752.70
2023-06-18T03:58:13.913Z,99750.63
2023-06-18T03:59:17.526Z,99751.06
2023-06-18T04:00:20.791Z,99756.28
2023-06-18T04:01:24.975Z,99755.03
2023-06-18T04:02:28.697Z,99754.61
2023-06-18T04:03:32.276Z,99755.01
2023-06-18T04:04:36.710Z,99759.62
2023-06-18T04:05:39.205Z,99758.17
2023-06-18T04:06:42.487Z,99756.27
2023-06-18T04:07:45.991Z,99752.30
2023-06-18T04:08:49.278Z,99759.83
2023-06-18T04:09:55.410Z,99751.03
2023-06-18T04:11:01.540Z,99756.89
2023-06-18T04:12:05.743Z,99755.81
2023-06-18T04:13:09.569Z,99760.84
2023-06-18T04:14:14.215Z,99763.55
2023-06-18T04:15:19.801Z,99757.08
2023-06-18T04:16:26.155Z,99753.94
2023-06-18T04:17:34.982Z,99756.23
2023-06-18T04:18:38.765Z,99761.25
2023-06-18T04:19:43.164Z,99757.48
2023-06-18T04:20:46.874Z,99761.84
2023-06-18T04:21:50.976Z,99760.59
2023-06-18T04:22:54.571Z,99763.31
2023-06-18T04:24:01.454Z,99767.70
2023-06-18T04:25:06.524Z,99759.75
2023-06-18T04:26:11.253Z,99765.56
2023-06-18T04:27:14.752Z,99770.78
2023-06-18T04:28:18.059Z,99761.70
2023-06-18T04:29:21.561Z,99764.84
2023-06-18T04:30:25.913Z,99763.30
2023-06-18T04:31:29.611Z,99766.27
2023-06-18T04:32:33.498Z,99768.91
2023-06-18T04:33:39.236Z,99773.30
2023-06-18T04:34:42.633Z,99780.64
2023-06-18T04:35:46.662Z,99777.76
2023-06-18T04:36:52.049Z,99781.91
2023-06-18T04:37:56.186Z,99773.08
2023-06-18T04:39:00.456Z,99774.53
2023-06-18T04:40:04.835Z,99774.03
2023-06-18T04:41:08.166Z,99777.34
2023-06-18T04:42:14.267Z,99777.99
2023-06-18T04:43:19.974Z,99774.47
2023-06-18T04:44:24.728Z,99781.70
2023-06-18T04:45:27.347Z,99783.16
2023-06-18T04:46:31.055Z,99784.61
2023-06-18T04:47:37.371Z,99782.89
2023-06-18T04:48:41.672Z,99787.61
2023-06-18T04:49:47.038Z,99787.22
2023-06-18T04:50:50.772Z,99786.52
2023-06-18T04:51:54.475Z,99784.66
2023-06-18T04:52:58.094Z,99787.33
2023-06-18T04:54:02.014Z,99792.21
2023-06-18T04:55:07.060Z,99786.08
2023-06-18T04:56:10.908Z,99797.09
2023-06-18T04:57:16.605Z,99791.13
2023-06-18T04:58:23.119Z,99785.03
2023-06-18T04:59:27.820Z,99794.44
2023-06-18T05:00:31.524Z,99809.66
2023-06-18T05:01:34.385Z,99802.13
2023-06-18T05:02:37.613Z,99801.67
2023-06-18T05:03:41.726Z,99805.84
2023-06-18T05:04:45.050Z,99806.36
2023-06-18T05:05:50.287Z,99807.25
2023-06-18T05:06:54.912Z,99806.63
2023-06-18T05:08:00.155Z,99809.08
2023-06-18T05:09:08.028Z,99811.12
2023-06-18T05:10:14.090Z,99815.29
2023-06-18T05:11:18.042Z,99812.34
2023-06-18T05:12:21.450Z,99813.12
2023-06-18T05:13:24.960Z,99819.38
2023-06-18T05:14:28.564Z,99808.62
2023-06-18T05:15:32.996Z,99810.75
2023-06-18T05:16:36.447Z,99817.75
2023-06-18T05:17:40.899Z,99819.10
2023-06-18T05:18:49.403Z,99824.32
2023-06-18T05:19:53.068Z,99831.23
2023-06-18T05:20:58.807Z,99828.84
2023-06-18T05:22:03.426Z,99833.10
2023-06-18T05:23:08.631Z,99827.46
2023-06-18T05:24:12.473Z,99829.30
2023-06-18T05:25:16.362Z,99828.30
2023-06-18T05:26:24.032Z,99827.92
2023-06-18T05:27:31.213Z,99826.13
2023-06-18T05:28:34.545Z,99823.97
2023-06-18T05:29:38.230Z,99832.64
2023-06-18T05:30:41.819Z,99830.61
2023-06-18T05:31:46.058Z,99827.42
2023-06-18T05:32:52.952Z,99831.84
2023-06-18T05:33:56.754Z,99826.58
2023-06-18T05:34:59.301Z,99830.52
2023-06-18T05:36:03.430Z,99830.88
2023-06-18T05:37:08.092Z,99834.22
2023-06-18T05:38:14.653Z,99833.03
2023-06-18T05:39:19.576Z,99835.27
2023-06-18T05:40:23.445Z,99825.74
2023-06-18T05:41:27.828Z,99838.72
2023-06-18T05:42:31.182Z,99837.17
2023-06-18T05:43:35.701Z,99841.82
2023-06-18T05:44:39.476Z,99839.34
2023-06-18T05:45:45.937Z,99837.06
2023-06-18T05:46:52.630Z,99837.30
2023-06-18T05:47:58.236Z,99842.43
2023-06-18T05:49:19.146Z,99838.84
2023-06-18T05:50:23.181Z,99844.56
2023-06-18T05:51:28.711Z,99842.17
2023-06-18T05:52:32.630Z,99845.01
2023-06-18T05:53:36.337Z,99845.60
2023-06-18T05:54:39.759Z,99845.05
2023-06-18T05:55:45.995Z,99847.20
2023-06-18T05:56:50.027Z,99849.46
2023-06-18T05:57:54.475Z,99851.45
2023-06-18T05:58:57.980Z,99849.10
2023-06-18T06:00:05.676Z,99851.60
2023-06-18T06:01:11.256Z,99847.18
2023-06-18T06:02:15.475Z,99855.63
2023-06-18T06:03:22.220Z,99854.77
2023-06-18T06:04:26.130Z,99853.78
2023-06-18T06:05:32.586Z,99853.11
2023-06-18T06:06:36.496Z,99849.02
2023-06-18T06:07:40.094Z,99845.55
2023-06-18T06:08:43.814Z,99854.61
2023-06-18T06:09:49.437Z,99848.96
2023-06-18T06:10:53.640Z,99853.91
2023-06-18T06:11:58.116Z,99858.55
2023-06-18T06:13:01.788Z,99853.85
2023-06-18T06:14:05.953Z,99858.91
2023-06-18T06:15:11.543Z,99861.41
2023-06-18T06:16:15.358Z,99856.64
2023-06-18T06:17:20.415Z,99859.25
2023-06-18T06:18:23.815Z,99862.42
2023-06-18T06:19:27.849Z,99863.53
2023-06-18T06:20:31.370Z,99865.28
2023-06-18T06:21:35.926Z,99866.77
2023-06-18T06:22:39.512Z,99870.28
2023-06-18T06:23:41.933Z,99870.33
2023-06-18T06:24:46.697Z,99865.03
2023-06-18T06:25:50.971Z,99872.73
2023-06-18T06:26:54.569Z,99875.20
2023-06-18T06:28:00.573Z,99870.30
2023-06-18T06:29:04.725Z,99865.41
2023-06-18T06:30:12.176Z,99868.11
2023-06-18T06:31:16.255Z,99872.00
2023-06-18T06:32:19.842Z,99874.00
2023-06-18T06:33:23.848Z,99871.55
2023-06-18T06:34:27.785Z,99871.20
2023-06-18T06:35:32.018Z,99877.09
2023-06-18T06:36:38.859Z,99880.55
2023-06-18T06:37:45.315Z,99877.04
2023-06-18T06:38:49.107Z,99878.87
2023-06-18T06:39:51.905Z,99881.38
2023-06-18T06:40:55.808Z,99882.08
2023-06-18T06:42:00.358Z,99879.66
2023-06-18T06:43:05.629Z,99878.87
2023-06-18T06:44:16.030Z,99877.48
2023-06-18T06:45:27.263Z,99887.59
2023-06-18T06:46:42.309Z,99886.27
2023-06-18T06:47:54.007Z,99885.76
2023-06-18T06:49:09.409Z,99886.20
2023-06-18T06:50:17.714Z,99879.33
2023-06-18T06:51:22.912Z,99875.75
2023-06-18T06:52:27.162Z,99882.45
2023-06-18T06:53:31.555Z,99887.64
2023-06-18T06:54:38.263Z,99890.68
2023-06-18T06:55:44.503Z,99886.77
2023-06-18T06:56:49.737Z,99885.86
2023-06-18T06:57:55.237Z,99885.27
2023-06-18T06:58:59.053Z,99888.77
2023-06-18T07:00:02.454Z,99881.23
2023-06-18T07:01:07.078Z,99885.66
2023-06-18T07:02:09.806Z,99888.02
2023-06-18T07:03:16.696Z,99892.38
2023-06-18T07:05:26.135Z,99886.63
2023-06-18T07:06:29.638Z,99891.48
2023-06-18T07:07:32.299Z,99890.27
2023-06-18T07:08:40.107Z,99893.59
2023-06-18T07:09:43.764Z,99887.86
2023-06-18T07:10:47.362Z,99891.47
2023-06-18T07:11:51.044Z,99889.89
2023-06-18T07:12:53.807Z,99891.55
2023-06-18T07:13:57.253Z,99891.67
2023-06-18T07:15:01.763Z,99899.33
2023-06-18T07:16:06.294Z,99899.91
2023-06-18T07:17:09.638Z,99898.98
2023-06-18T07:18:16.036Z,99903.31
2023-06-18T07:19:19.820Z,99898.84
2023-06-18T07:20:25.992Z,99894.48
2023-06-18T07:21:29.469Z,99894.80
2023-06-18T07:22:32.448Z,99891.34
2023-06-18T07:23:37.832Z,99900.08
2023-06-18T07:24:41.556Z,99905.62
2023-06-18T07:25:47.133Z,99903.67
2023-06-18T07:26:50.494Z,99894.99
2023-06-18T07:27:53.937Z,99907.36
2023-06-18T07:28:59.320Z,99904.13
2023-06-18T07:30:02.715Z,99911.12
2023-06-18T07:31:07.543Z,99904.45
2023-06-18T07:32:10.876Z,99908.59
2023-06-18T07:33:14.182Z,99905.02
2023-06-18T07:34:21.687Z,99903.48
2023-06-18T07:35:33.532Z,99905.75
2023-06-18T07:36:38.824Z,99905.17
2023-06-18T07:37:42.824Z,99910.42
2023-06-18T07:38:46.624Z,99916.36
2023-06-18T07:39:52.960Z,99911.23
2023-06-18T07:40:59.471Z,99910.37
2023-06-18T07:42:02.928Z,99906.34
2023-06-18T07:43:05.897Z,99905.95
2023-06-18T07:44:12.579Z,99914.11
2023-06-18T07:45:15.817Z,99911.12
2023-06-18T07:46:18.782Z,99915.46
2023-06-18T07:47:22.732Z,99911.93
2023-06-18T07:48:25.611Z,99912.72
2023-06-18T07:49:29.267Z,99902.66
2023-06-18T07:50:31.789Z,99908.81
2023-06-18T07:51:35.289Z,99911.99
2023-06-18T07:52:38.939Z,99911.02
2023-06-18T07:53:44.801Z,99911.13
2023-06-18T07:54:48.092Z,99915.41
2023-06-18T07:55:54.670Z,99922.34
2023-06-18T07:56:58.552Z,99923.17
2023-06-18T07:58:02.369Z,99926.08
2023-06-18T07:59:05.916Z,99918.00
2023-06-18T08:00:09.998Z,99920.11
2023-06-18T08:01:17.512Z,99923.53
2023-06-18T08:02:22.258Z,99919.00
2023-06-18T08:03:24.956Z,99919.33
2023-06-18T08:04:28.377Z,99922.56
2023-06-18T08:05:32.110Z,99915.96
2023-06-18T08:06:35.713Z,99923.09
2023-06-18T08:07:41.532Z,99927.98
2023-06-18T08:08:43.765Z,99924.01
2023-06-18T08:09:46.140Z,99934.48
2023-06-18T08:10:52.912Z,99936.27
2023-06-18T08:11:59.986Z,99937.95
2023-06-18T08:13:04.841Z,99938.23
2023-06-18T08:14:08.514Z,99931.89
2023-06-18T08:15:12.249Z,99940.66
2023-06-18T08:16:19.544Z,99931.52
2023-06-18T08:17:23.965Z,99938.72
2023-06-18T08:18:27.784Z,99939.91
2023-06-18T08:19:32.361Z,99947.06
2023-06-18T08:20:37.803Z,99951.25
2023-06-18T08:21:41.832Z,99940.20
2023-06-18T08:22:45.441Z,99942.14
2023-06-18T08:23:48.989Z,99938.69
2023-06-18T08:24:52.320Z,99946.25
2023-06-18T08:25:55.222Z,99946.47
2023-06-18T08:26:58.623Z,99948.27
2023-06-18T08:28:01.793Z,99942.72
2023-06-18T08:29:05.426Z,99945.36
2023-06-18T08:30:08.656Z,99951.93
2023-06-18T08:31:12.333Z,99952.23
2023-06-18T08:32:15.834Z,99961.70
2023-06-18T08:33:21.699Z,99960.17
2023-06-18T08:34:26.820Z,99959.75
2023-06-18T08:35:30.527Z,99952.25
2023-06-18T08:36:33.919Z,99963.95
2023-06-18T08:37:40.253Z,99954.55
2023-06-18T08:38:46.268Z,99957.55
2023-06-18T08:39:51.023Z,99966.08
2023-06-18T08:40:57.758Z,99952.06
2023-06-18T08:42:02.323Z,99951.78
2023-06-18T08:43:07.694Z,99960.44
2023-06-18T08:44:12.981Z,99959.92
2023-06-18T08:45:16.694Z,99956.66
2023-06-18T08:46:21.158Z,99960.42
2023-06-18T08:47:26.720Z,99957.75
2023-06-18T08:48:35.573Z,99957.34
2023-06-18T08:49:43.218Z,99953.83
2023-06-18T08:50:45.599Z,99954.58
2023-06-18T08:51:50.831Z,99955.28
2023-06-18T08:52:59.834Z,99951.89
2023-06-18T08:54:06.865Z,99952.27
2023-06-18T08:55:12.050Z,99961.41
2023-06-18T08:56:16.495Z,99962.44
2023-06-18T08:57:23.920Z,99967.48
2023-06-18T08:58:27.795Z,99960.72
2023-06-18T08:59:33.694Z,99962.64
2023-06-18T09:00:38.141Z,99970.13
2023-06-18T09:01:43.525Z,99967.62
2023-06-18T09:02:47.068Z,99965.48
2023-06-18T09:03:52.865Z,99964.16
2023-06-18T09:04:57.682Z,99948.94
2023-06-18T09:06:02.124Z,99949.51
2023-06-18T09:07:11.327Z,99952.78
2023-06-18T09:08:15.625Z,99943.34
2023-06-18T09:09:19.308Z,99947.64
2023-06-18T09:10:25.465Z,99957.10
2023-06-18T09:11:31.246Z,99953.45
2023-06-18T09:12:39.780Z,99939.75
2023-06-18T09:13:45.584Z,99944.48
2023-06-18T09:14:49.299Z,99954.42
2023-06-18T09:15:52.382Z,99957.88
2023-06-18T09:16:56.331Z,99960.23
2023-06-18T09:18:00.131Z,99959.56
2023-06-18T09:19:08.565Z,99962.75
2023-06-18T09:20:17.521Z,99965.01
2023-06-18T09:21:40.551Z,99960.73
2023-06-18T09:22:47.566Z,99970.03
2023-06-18T09:23:57.705Z,99971.01
2023-06-18T09:25:01.807Z,99961.67
2023-06-18T09:26:05.399Z,99961.22
2023-06-18T09:27:09.130Z,99958.27
2023-06-18T09:28:12.717Z,99957.04
2023-06-18T09:29:19.688Z,99957.72
2023-06-18T09:30:26.723Z,99958.00
2023-06-18T09:31:29.125Z,99960.09
2023-06-18T09:32:35.999Z,99959.00
2023-06-18T09:33:38.809Z,99954.28
2023-06-18T09:34:43.043Z,99955.94
2023-06-18T09:35:46.087Z,99954.18
2023-06-18T09:36:50.476Z,99943.36
2023-06-18T09:37:56.844Z,99951.30
2023-06-18T09:39:00.192Z,99944.75
2023-06-18T09:40:05.471Z,99945.81
2023-06-18T09:41:16.078Z,99938.17
2023-06-18T09:42:22.636Z,99940.59
2023-06-18T09:43:29.651Z,99926.24
2023-06-18T09:44:35.316Z,99934.55
2023-06-18T09:45:37.926Z,99927.86
2023-06-18T09:46:45.717Z,99937.44
2023-06-18T09:47:48.238Z,99935.38
2023-06-18T09:48:51.307Z,99939.80
2023-06-18T09:49:58.503Z,99933.41
2023-06-18T09:51:04.942Z,99928.95
2023-06-18T09:52:14.108Z,99933.28
2023-06-18T09:53:20.642Z,99927.20
2023-06-18T09:54:24.142Z,99922.66
2023-06-18T09:55:29.129Z,99927.80
2023-06-18T09:56:32.729Z,99925.49
2023-06-18T09:57:37.907Z,99930.95
2023-06-18T09:58:43.912Z,99927.41
2023-06-18T09:59:46.582Z,99923.98
2023-06-18T10:01:06.556Z,99928.45
2023-06-18T10:02:11.976Z,99927.20
2023-06-18T10:03:18.652Z,99921.78
2023-06-18T10:04:26.478Z,99920.70
2023-06-18T10:05:36.022Z,99917.85
2023-06-18T10:06:41.057Z,99917.11
2023-06-18T10:07:46.053Z,99924.66
2023-06-18T10:08:54.230Z,99922.17
2023-06-18T10:09:57.350Z,99925.80
2023-06-18T10:10:59.534Z,99915.88
2023-06-18T10:12:04.192Z,99930.34
2023-06-18T10:13:10.950Z,99927.82
2023-06-18T10:14:14.761Z,99926.66
2023-06-18T10:15:21.359Z,99932.34
2023-06-18T10:16:27.817Z,99928.55
2023-06-18T10:17:33.059Z,99934.12
2023-06-18T10:18:37.766Z,99926.11
2023-06-18T10:19:44.470Z,99925.37
2023-06-18T10:20:48.523Z,99931.81
2023-06-18T10:21:53.026Z,99928.80
2023-06-18T10:22:59.406Z,99927.17
2023-06-18T10:24:07.010Z,99934.40
2023-06-18T10:25:12.058Z,99933.02
2023-06-18T10:26:16.840Z,99923.68
2023-06-18T10:27:23.221Z,99925.94
2023-06-18T10:28:27.800Z,99922.23
2023-06-18T10:29:33.277Z,99925.05
2023-06-18T10:30:37.524Z,99921.59
2023-06-18T10:31:41.494Z,99927.13
2023-06-18T10:32:45.459Z,99926.98
2023-06-18T10:33:49.499Z,99932.36
2023-06-18T10:34:56.884Z,99930.64
2023-06-18T10:36:01.148Z,99940.87
2023-06-18T10:37:05.726Z,99930.75
2023-06-18T10:38:09.889Z,99934.88
2023-06-18T10:39:24.328Z,99941.27
2023-06-18T10:40:20.255Z,99934.61
2023-06-18T10:41:26.988Z,99927.14
2023-06-18T10:42:32.572Z,99936.56
2023-06-18T10:43:37.965Z,99917.52
2023-06-18T10:44:42.214Z,99924.06
2023-06-18T10:46:03.999Z,99926.78
2023-06-18T10:47:25.675Z,99929.01
2023-06-18T10:48:30.105Z,99939.18
2023-06-18T10:49:33.396Z,99928.47
2023-06-18T10:50:36.278Z,99933.47
2023-06-18T10:51:40.088Z,99932.74
2023-06-18T10:52:48.850Z,99931.33
2023-06-18T10:53:53.912Z,99929.92
2023-06-18T10:54:57.718Z,99941.53
2023-06-18T10:56:03.740Z,99935.96
2023-06-18T10:57:08.594Z,99934.02
2023-06-18T10:58:13.035Z,99943.78
2023-06-18T10:59:16.641Z,99930.80
2023-06-18T11:00:23.282Z,99928.00
2023-06-18T11:01:28.657Z,99933.01
2023-06-18T11:02:35.988Z,99935.22
2023-06-18T11:03:43.679Z,99929.12
2023-06-18T11:04:52.557Z,99933.71
2023-06-18T11:05:56.687Z,99925.95
2023-06-18T11:07:14.495Z,99930.13
2023-06-18T11:08:18.741Z,99922.85
2023-06-18T11:09:22.229Z,99919.89
2023-06-18T11:10:36.711Z,99921.09
2023-06-18T11:11:43.242Z,99921.65
2023-06-18T11:12:46.652Z,99931.49
2023-06-18T11:13:52.034Z,99923.33
2023-06-18T11:15:16.441Z,99924.19
2023-06-18T11:16:19.492Z,99930.30
2023-06-18T11:17:23.301Z,99925.63
2023-06-18T11:18:29.820Z,99936.34
2023-06-18T11:19:33.524Z,99927.22
2023-06-18T11:20:38.753Z,99924.71
2023-06-18T11:21:43.074Z,99939.87
2023-06-18T11:22:46.840Z,99932.16
2023-06-18T11:23:51.322Z,99932.97
2023-06-18T11:24:54.967Z,99927.17
2023-06-18T11:26:01.308Z,99929.94
2023-06-18T11:27:05.209Z,99929.64
2023-06-18T11:28:09.658Z,99941.44
2023-06-18T11:29:13.056Z,99932.57
2023-06-18T11:30:17.296Z,99935.42
2023-06-18T11:31:20.693Z,99928.46
2023-06-18T11:32:33.498Z,99935.84
2023-06-18T11:34:49.698Z,99940.50
2023-06-18T11:35:53.685Z,99940.50
2023-06-18T11:36:57.416Z,99931.20
2023-06-18T11:37:59.612Z,99935.89
2023-06-18T11:39:06.694Z,99934.42
2023-06-18T11:40:12.267Z,99938.88
2023-06-18T11:41:18.902Z,99934.55
2023-06-18T11:42:23.429Z,99939.53
2023-06-18T11:43:27.140Z,99939.01
2023-06-18T11:44:31.805Z,99937.30
2023-06-18T11:45:35.181Z,99940.69
2023-06-18T11:46:39.785Z,99937.84
2023-06-18T11:47:49.556Z,99940.13
2023-06-18T11:48:54.502Z,99939.03
2023-06-18T11:50:01.222Z,99937.62
2023-06-18T11:51:05.771Z,99931.09
2023-06-18T11:52:09.691Z,99935.25
2023-06-18T11:53:13.827Z,99933.59
2023-06-18T11:54:17.141Z,99932.09
2023-06-18T11:55:21.753Z,99935.52
2023-06-18T11:56:26.873Z,99938.34
2023-06-18T11:57:31.933Z,99929.81
2023-06-18T11:58:36.366Z,99930.00
2023-06-18T11:59:44.880Z,99930.33
2023-06-18T12:00:55.888Z,99930.05
2023-06-18T12:02:02.231Z,99935.62
2023-06-18T12:03:07.138Z,99935.42
2023-06-18T12:04:10.840Z,99937.48
2023-06-18T12:05:14.512Z,99933.49
2023-06-18T12:06:21.368Z,99931.60
2023-06-18T12:07:25.397Z,99925.02
2023-06-18T12:08:28.908Z,99929.47
2023-06-18T12:09:37.837Z,99932.79
2023-06-18T12:10:42.815Z,99929.70
2023-06-18T12:11:47.462Z,99929.22
2023-06-18T12:12:55.663Z,99930.39
2023-06-18T12:14:05.827Z,99931.27
2023-06-18T12:15:25.001Z,99930.56
2023-06-18T12:16:31.832Z,99928.61
2023-06-18T12:17:37.008Z,99933.33
2023-06-18T12:18:42.867Z,99932.13
2023-06-18T12:19:47.817Z,99927.44
2023-06-18T12:20:51.637Z,99927.80
2023-06-18T12:21:55.239Z,99933.63
2023-06-18T12:23:00.389Z,99929.50
2023-06-18T12:24:04.250Z,99933.03
2023-06-18T12:25:08.107Z,99928.40
2023-06-18T12:26:13.877Z,99934.16
2023-06-18T12:27:17.475Z,99929.07
2023-06-18T12:28:25.189Z,99931.30
2023-06-18T12:29:30.646Z,99929.20
2023-06-18T12:30:36.121Z,99916.87
2023-06-18T12:31:39.423Z,99923.66
2023-06-18T12:32:46.736Z,99922.66
2023-06-18T12:33:50.005Z,99921.83
2023-06-18T12:34:52.550Z,99921.47
2023-06-18T12:35:57.641Z,99920.16
2023-06-18T12:37:01.240Z,99920.73
2023-06-18T12:38:06.336Z,99921.78
2023-06-18T12:39:15.439Z,99921.30
2023-06-18T12:40:22.846Z,99921.52
2023-06-18T12:41:31.682Z,99917.66
2023-06-18T12:42:35.110Z,99921.43
2023-06-18T12:43:43.048Z,99925.78
2023-06-18T12:44:46.563Z,99926.14
2023-06-18T12:45:57.778Z,99922.61
2023-06-18T12:47:01.597Z,99920.97
2023-06-18T12:48:12.425Z,99929.56